<?xml version="1.0" encoding="UTF-8" standalone="no" ?>
<gpx xmlns="http://www.topografix.com/GPX/1/1" xmlns:xsi="http://www.w3.org/2001/XMLSchema-instance" xsi:schemaLocation="http://www.topografix.com/GPX/1/1 http://www.topografix.com/GPX/1/1/gpx.xsd" version="1.1" creator="VisuGPX - https://www.visugpx.com">
  <metadata>
    <name>Les Vans- Le Germagnon</name>
    <desc><![CDATA[Belle ballade sur les hauteurs des Vans au milieu des Oliviers et des gras, les vues sur les vallées autour du Germagnon sont splendides.]]></desc>
  </metadata>
  <trk>
    <name><![CDATA[Germagnon_2017-09-15 13:42]]></name>
    <desc><![CDATA[<p>Heure de départ: 09/15/2017 13:42<br/>Heure d'arrivée: 09/15/2017 16:00<br/>Distance: 4,9 km (02:17)<br/>Temps déplacement: 01:15<br/>Vitesse moyenne: 2,15 km/h<br/>Vitesse moyenne mouv.: 3,9 km/h<br/>Vitesse Max.: 10,71 km/h<br/>Altitude minimale: 232 m<br/>Altitude maximale: 336 m<br/>Vitesse de montée: 208,2 m/h<br/>Vitesse de descente: -136,9 m/h<br/>Gain d'altitude: 170 m<br/>Perte d'altitude: -175 m<br/>Temps de montée: 00:49<br/>Temps de descente: 01:16<br/></p><hr align="center" width="480" style="height: 2px; width: 517px"/>]]></desc>
    <trkseg>
      <trkpt lat="44.40398" lon="4.16391">
        <ele>240.68</ele>
        <time>2017-09-15T11:42:54Z</time>
      </trkpt>
      <trkpt lat="44.40381" lon="4.16382">
        <ele>235.99</ele>
        <time>2017-09-15T11:44:58Z</time>
      </trkpt>
      <trkpt lat="44.40363" lon="4.16376">
        <ele>239.56</ele>
        <time>2017-09-15T11:45:20Z</time>
      </trkpt>
      <trkpt lat="44.40345" lon="4.16383">
        <ele>240.09</ele>
        <time>2017-09-15T11:45:38Z</time>
      </trkpt>
      <trkpt lat="44.40327" lon="4.16385">
        <ele>236.33</ele>
        <time>2017-09-15T11:45:57Z</time>
      </trkpt>
      <trkpt lat="44.40308" lon="4.16382">
        <ele>234.3</ele>
        <time>2017-09-15T11:46:25Z</time>
      </trkpt>
      <trkpt lat="44.40306" lon="4.16357">
        <ele>234.69</ele>
        <time>2017-09-15T11:46:59Z</time>
      </trkpt>
      <trkpt lat="44.40321" lon="4.16336">
        <ele>237.63</ele>
        <time>2017-09-15T11:47:39Z</time>
      </trkpt>
      <trkpt lat="44.40328" lon="4.1631">
        <ele>236.39</ele>
        <time>2017-09-15T11:48:13Z</time>
      </trkpt>
      <trkpt lat="44.40342" lon="4.16295">
        <ele>240.68</ele>
        <time>2017-09-15T11:48:26Z</time>
      </trkpt>
      <trkpt lat="44.40333" lon="4.16271">
        <ele>239.59</ele>
        <time>2017-09-15T11:48:48Z</time>
      </trkpt>
      <trkpt lat="44.40323" lon="4.16249">
        <ele>244.97</ele>
        <time>2017-09-15T11:48:55Z</time>
      </trkpt>
      <trkpt lat="44.40305" lon="4.16238">
        <ele>242.38</ele>
        <time>2017-09-15T11:49:23Z</time>
      </trkpt>
      <trkpt lat="44.40293" lon="4.16219">
        <ele>241.99</ele>
        <time>2017-09-15T11:49:30Z</time>
      </trkpt>
      <trkpt lat="44.40279" lon="4.16202">
        <ele>247.18</ele>
        <time>2017-09-15T11:49:51Z</time>
      </trkpt>
      <trkpt lat="44.40265" lon="4.16186">
        <ele>246.96</ele>
        <time>2017-09-15T11:50:09Z</time>
      </trkpt>
      <trkpt lat="44.40249" lon="4.16173">
        <ele>244.95</ele>
        <time>2017-09-15T11:50:44Z</time>
      </trkpt>
      <trkpt lat="44.40241" lon="4.16147">
        <ele>247.89</ele>
        <time>2017-09-15T11:51:02Z</time>
      </trkpt>
      <trkpt lat="44.40225" lon="4.16135">
        <ele>246.31</ele>
        <time>2017-09-15T11:51:20Z</time>
      </trkpt>
      <trkpt lat="44.40209" lon="4.16119">
        <ele>250.59</ele>
        <time>2017-09-15T11:51:27Z</time>
      </trkpt>
      <trkpt lat="44.40198" lon="4.16096">
        <ele>239.76</ele>
        <time>2017-09-15T11:51:55Z</time>
      </trkpt>
      <trkpt lat="44.40184" lon="4.16079">
        <ele>247.63</ele>
        <time>2017-09-15T11:52:06Z</time>
      </trkpt>
      <trkpt lat="44.40171" lon="4.16059">
        <ele>242.58</ele>
        <time>2017-09-15T11:52:26Z</time>
      </trkpt>
      <trkpt lat="44.40161" lon="4.16037">
        <ele>244.69</ele>
        <time>2017-09-15T11:52:42Z</time>
      </trkpt>
      <trkpt lat="44.40152" lon="4.16013">
        <ele>246.62</ele>
        <time>2017-09-15T11:52:53Z</time>
      </trkpt>
      <trkpt lat="44.40147" lon="4.15989">
        <ele>247.51</ele>
        <time>2017-09-15T11:53:09Z</time>
      </trkpt>
      <trkpt lat="44.40146" lon="4.15963">
        <ele>248.42</ele>
        <time>2017-09-15T11:53:33Z</time>
      </trkpt>
      <trkpt lat="44.40136" lon="4.15942">
        <ele>251.95</ele>
        <time>2017-09-15T11:53:51Z</time>
      </trkpt>
      <trkpt lat="44.40127" lon="4.1592">
        <ele>252.06</ele>
        <time>2017-09-15T11:54:07Z</time>
      </trkpt>
      <trkpt lat="44.40123" lon="4.15894">
        <ele>247.9</ele>
        <time>2017-09-15T11:54:26Z</time>
      </trkpt>
      <trkpt lat="44.40117" lon="4.15867">
        <ele>250.29</ele>
        <time>2017-09-15T11:54:44Z</time>
      </trkpt>
      <trkpt lat="44.4011" lon="4.15841">
        <ele>249.62</ele>
        <time>2017-09-15T11:55:05Z</time>
      </trkpt>
      <trkpt lat="44.401" lon="4.15819">
        <ele>246.75</ele>
        <time>2017-09-15T11:55:26Z</time>
      </trkpt>
      <trkpt lat="44.40093" lon="4.15796">
        <ele>247.69</ele>
        <time>2017-09-15T11:55:42Z</time>
      </trkpt>
      <trkpt lat="44.40089" lon="4.1577">
        <ele>245.66</ele>
        <time>2017-09-15T11:55:59Z</time>
      </trkpt>
      <trkpt lat="44.40083" lon="4.15745">
        <ele>247.54</ele>
        <time>2017-09-15T11:56:18Z</time>
      </trkpt>
      <trkpt lat="44.40079" lon="4.15717">
        <ele>251.59</ele>
        <time>2017-09-15T11:56:34Z</time>
      </trkpt>
      <trkpt lat="44.40075" lon="4.15691">
        <ele>249.29</ele>
        <time>2017-09-15T11:56:50Z</time>
      </trkpt>
      <trkpt lat="44.40074" lon="4.15664">
        <ele>245.52</ele>
        <time>2017-09-15T11:57:16Z</time>
      </trkpt>
      <trkpt lat="44.40067" lon="4.1564">
        <ele>247.66</ele>
        <time>2017-09-15T11:57:34Z</time>
      </trkpt>
      <trkpt lat="44.40063" lon="4.15614">
        <ele>243.58</ele>
        <time>2017-09-15T11:57:54Z</time>
      </trkpt>
      <trkpt lat="44.40059" lon="4.15587">
        <ele>248.54</ele>
        <time>2017-09-15T11:58:08Z</time>
      </trkpt>
      <trkpt lat="44.40067" lon="4.15563">
        <ele>250.39</ele>
        <time>2017-09-15T11:58:27Z</time>
      </trkpt>
      <trkpt lat="44.40074" lon="4.15539">
        <ele>249.69</ele>
        <time>2017-09-15T11:58:40Z</time>
      </trkpt>
      <trkpt lat="44.40078" lon="4.15513">
        <ele>251.68</ele>
        <time>2017-09-15T11:58:57Z</time>
      </trkpt>
      <trkpt lat="44.40079" lon="4.15486">
        <ele>253.71</ele>
        <time>2017-09-15T11:59:22Z</time>
      </trkpt>
      <trkpt lat="44.40078" lon="4.15458">
        <ele>249.2</ele>
        <time>2017-09-15T11:59:37Z</time>
      </trkpt>
      <trkpt lat="44.40078" lon="4.15431">
        <ele>251.75</ele>
        <time>2017-09-15T11:59:57Z</time>
      </trkpt>
      <trkpt lat="44.40078" lon="4.15405">
        <ele>241.43</ele>
        <time>2017-09-15T12:00:32Z</time>
      </trkpt>
      <trkpt lat="44.40079" lon="4.15378">
        <ele>244.9</ele>
        <time>2017-09-15T12:00:40Z</time>
      </trkpt>
      <trkpt lat="44.40081" lon="4.15352">
        <ele>249.39</ele>
        <time>2017-09-15T12:01:01Z</time>
      </trkpt>
      <trkpt lat="44.40086" lon="4.15328">
        <ele>254.66</ele>
        <time>2017-09-15T12:01:30Z</time>
      </trkpt>
      <trkpt lat="44.40084" lon="4.15301">
        <ele>258.54</ele>
        <time>2017-09-15T12:02:03Z</time>
      </trkpt>
      <trkpt lat="44.40091" lon="4.15277">
        <ele>249.54</ele>
        <time>2017-09-15T12:02:22Z</time>
      </trkpt>
      <trkpt lat="44.40098" lon="4.15252">
        <ele>248.98</ele>
        <time>2017-09-15T12:02:33Z</time>
      </trkpt>
      <trkpt lat="44.40102" lon="4.15227">
        <ele>243.6</ele>
        <time>2017-09-15T12:02:49Z</time>
      </trkpt>
      <trkpt lat="44.40106" lon="4.152">
        <ele>248.34</ele>
        <time>2017-09-15T12:03:20Z</time>
      </trkpt>
      <trkpt lat="44.40107" lon="4.15175">
        <ele>248.48</ele>
        <time>2017-09-15T12:03:36Z</time>
      </trkpt>
      <trkpt lat="44.40113" lon="4.15149">
        <ele>250.66</ele>
        <time>2017-09-15T12:04:04Z</time>
      </trkpt>
      <trkpt lat="44.4011" lon="4.15123">
        <ele>251.95</ele>
        <time>2017-09-15T12:04:39Z</time>
      </trkpt>
      <trkpt lat="44.40113" lon="4.15095">
        <ele>256.96</ele>
        <time>2017-09-15T12:04:47Z</time>
      </trkpt>
      <trkpt lat="44.40117" lon="4.15071">
        <ele>254.88</ele>
        <time>2017-09-15T12:05:06Z</time>
      </trkpt>
      <trkpt lat="44.40123" lon="4.15047">
        <ele>256.62</ele>
        <time>2017-09-15T12:05:28Z</time>
      </trkpt>
      <trkpt lat="44.4013" lon="4.15023">
        <ele>258.66</ele>
        <time>2017-09-15T12:05:43Z</time>
      </trkpt>
      <trkpt lat="44.40131" lon="4.14998">
        <ele>252.02</ele>
        <time>2017-09-15T12:06:16Z</time>
      </trkpt>
      <trkpt lat="44.40133" lon="4.14971">
        <ele>239.73</ele>
        <time>2017-09-15T12:06:39Z</time>
      </trkpt>
      <trkpt lat="44.40139" lon="4.14947">
        <ele>242.35</ele>
        <time>2017-09-15T12:06:49Z</time>
      </trkpt>
      <trkpt lat="44.40149" lon="4.14925">
        <ele>245.51</ele>
        <time>2017-09-15T12:06:56Z</time>
      </trkpt>
      <trkpt lat="44.40162" lon="4.14905">
        <ele>251.31</ele>
        <time>2017-09-15T12:07:03Z</time>
      </trkpt>
      <trkpt lat="44.40176" lon="4.14889">
        <ele>251.78</ele>
        <time>2017-09-15T12:07:13Z</time>
      </trkpt>
      <trkpt lat="44.40191" lon="4.14873">
        <ele>239.77</ele>
        <time>2017-09-15T12:07:54Z</time>
      </trkpt>
      <trkpt lat="44.40203" lon="4.14851">
        <ele>246.26</ele>
        <time>2017-09-15T12:08:11Z</time>
      </trkpt>
      <trkpt lat="44.40211" lon="4.14827">
        <ele>251.63</ele>
        <time>2017-09-15T12:08:27Z</time>
      </trkpt>
      <trkpt lat="44.40226" lon="4.14812">
        <ele>255.79</ele>
        <time>2017-09-15T12:08:59Z</time>
      </trkpt>
      <trkpt lat="44.40245" lon="4.14812">
        <ele>256.6</ele>
        <time>2017-09-15T12:09:16Z</time>
      </trkpt>
      <trkpt lat="44.40263" lon="4.1481">
        <ele>257.78</ele>
        <time>2017-09-15T12:09:33Z</time>
      </trkpt>
      <trkpt lat="44.40281" lon="4.14813">
        <ele>257.9</ele>
        <time>2017-09-15T12:10:04Z</time>
      </trkpt>
      <trkpt lat="44.403" lon="4.14817">
        <ele>264.68</ele>
        <time>2017-09-15T12:10:33Z</time>
      </trkpt>
      <trkpt lat="44.40318" lon="4.14823">
        <ele>259.37</ele>
        <time>2017-09-15T12:11:00Z</time>
      </trkpt>
      <trkpt lat="44.40335" lon="4.14833">
        <ele>265.35</ele>
        <time>2017-09-15T12:11:23Z</time>
      </trkpt>
      <trkpt lat="44.40352" lon="4.14841">
        <ele>270.57</ele>
        <time>2017-09-15T12:11:54Z</time>
      </trkpt>
      <trkpt lat="44.40367" lon="4.14858">
        <ele>273.81</ele>
        <time>2017-09-15T12:12:44Z</time>
      </trkpt>
      <trkpt lat="44.40386" lon="4.14859">
        <ele>276.67</ele>
        <time>2017-09-15T12:13:19Z</time>
      </trkpt>
      <trkpt lat="44.40404" lon="4.14862">
        <ele>283.6</ele>
        <time>2017-09-15T12:13:38Z</time>
      </trkpt>
      <trkpt lat="44.40423" lon="4.14861">
        <ele>281.57</ele>
        <time>2017-09-15T12:14:00Z</time>
      </trkpt>
      <trkpt lat="44.40441" lon="4.14867">
        <ele>290.64</ele>
        <time>2017-09-15T12:14:26Z</time>
      </trkpt>
      <trkpt lat="44.40459" lon="4.14867">
        <ele>284.61</ele>
        <time>2017-09-15T12:14:52Z</time>
      </trkpt>
      <trkpt lat="44.40477" lon="4.14877">
        <ele>288.69</ele>
        <time>2017-09-15T12:15:10Z</time>
      </trkpt>
      <trkpt lat="44.40495" lon="4.1488">
        <ele>290.67</ele>
        <time>2017-09-15T12:15:28Z</time>
      </trkpt>
      <trkpt lat="44.40513" lon="4.14883">
        <ele>288.87</ele>
        <time>2017-09-15T12:16:00Z</time>
      </trkpt>
      <trkpt lat="44.40531" lon="4.14887">
        <ele>294.11</ele>
        <time>2017-09-15T12:16:19Z</time>
      </trkpt>
      <trkpt lat="44.4055" lon="4.1489">
        <ele>274.32</ele>
        <time>2017-09-15T12:16:41Z</time>
      </trkpt>
      <trkpt lat="44.40568" lon="4.14883">
        <ele>294.45</ele>
        <time>2017-09-15T12:17:00Z</time>
      </trkpt>
      <trkpt lat="44.40584" lon="4.1487">
        <ele>297.25</ele>
        <time>2017-09-15T12:17:22Z</time>
      </trkpt>
      <trkpt lat="44.40594" lon="4.14848">
        <ele>301.68</ele>
        <time>2017-09-15T12:17:44Z</time>
      </trkpt>
      <trkpt lat="44.40604" lon="4.14826">
        <ele>296.98</ele>
        <time>2017-09-15T12:17:59Z</time>
      </trkpt>
      <trkpt lat="44.4061" lon="4.14802">
        <ele>304.18</ele>
        <time>2017-09-15T12:18:25Z</time>
      </trkpt>
      <trkpt lat="44.40617" lon="4.14778">
        <ele>307.68</ele>
        <time>2017-09-15T12:18:47Z</time>
      </trkpt>
      <trkpt lat="44.40625" lon="4.14753">
        <ele>314.72</ele>
        <time>2017-09-15T12:19:10Z</time>
      </trkpt>
      <trkpt lat="44.40636" lon="4.14733">
        <ele>312.69</ele>
        <time>2017-09-15T12:19:35Z</time>
      </trkpt>
      <trkpt lat="44.40641" lon="4.14708">
        <ele>313.17</ele>
        <time>2017-09-15T12:20:15Z</time>
      </trkpt>
      <trkpt lat="44.40642" lon="4.14683">
        <ele>313.19</ele>
        <time>2017-09-15T12:20:33Z</time>
      </trkpt>
      <trkpt lat="44.4065" lon="4.14659">
        <ele>317.53</ele>
        <time>2017-09-15T12:24:42Z</time>
      </trkpt>
      <trkpt lat="44.40658" lon="4.14636">
        <ele>319.75</ele>
        <time>2017-09-15T12:24:54Z</time>
      </trkpt>
      <trkpt lat="44.40659" lon="4.1461">
        <ele>323.25</ele>
        <time>2017-09-15T12:25:16Z</time>
      </trkpt>
      <trkpt lat="44.40664" lon="4.14586">
        <ele>330.32</ele>
        <time>2017-09-15T12:26:35Z</time>
      </trkpt>
      <trkpt lat="44.40665" lon="4.1456">
        <ele>327.69</ele>
        <time>2017-09-15T12:26:58Z</time>
      </trkpt>
      <trkpt lat="44.40647" lon="4.14565">
        <ele>328.69</ele>
        <time>2017-09-15T12:28:04Z</time>
      </trkpt>
      <trkpt lat="44.40635" lon="4.14583">
        <ele>328.68</ele>
        <time>2017-09-15T12:28:18Z</time>
      </trkpt>
      <trkpt lat="44.4062" lon="4.14568">
        <ele>333.69</ele>
        <time>2017-09-15T12:29:21Z</time>
      </trkpt>
      <trkpt lat="44.40638" lon="4.14567">
        <ele>333.36</ele>
        <time>2017-09-15T12:32:56Z</time>
      </trkpt>
      <trkpt lat="44.40645" lon="4.14543">
        <ele>327.99</ele>
        <time>2017-09-15T12:33:13Z</time>
      </trkpt>
      <trkpt lat="44.40656" lon="4.14522">
        <ele>323.69</ele>
        <time>2017-09-15T12:33:43Z</time>
      </trkpt>
      <trkpt lat="44.40675" lon="4.14519">
        <ele>332.51</ele>
        <time>2017-09-15T12:40:26Z</time>
      </trkpt>
      <trkpt lat="44.40687" lon="4.14538">
        <ele>329.84</ele>
        <time>2017-09-15T12:40:51Z</time>
      </trkpt>
      <trkpt lat="44.40701" lon="4.14555">
        <ele>331.69</ele>
        <time>2017-09-15T12:41:18Z</time>
      </trkpt>
      <trkpt lat="44.40712" lon="4.14575">
        <ele>336.78</ele>
        <time>2017-09-15T12:41:57Z</time>
      </trkpt>
      <trkpt lat="44.40729" lon="4.14587">
        <ele>328.99</ele>
        <time>2017-09-15T12:42:20Z</time>
      </trkpt>
      <trkpt lat="44.40745" lon="4.14601">
        <ele>326.3</ele>
        <time>2017-09-15T12:42:42Z</time>
      </trkpt>
      <trkpt lat="44.4076" lon="4.14616">
        <ele>329.99</ele>
        <time>2017-09-15T12:43:10Z</time>
      </trkpt>
      <trkpt lat="44.40774" lon="4.14634">
        <ele>327.39</ele>
        <time>2017-09-15T12:43:36Z</time>
      </trkpt>
      <trkpt lat="44.40778" lon="4.14659">
        <ele>332.3</ele>
        <time>2017-09-15T12:44:18Z</time>
      </trkpt>
      <trkpt lat="44.40786" lon="4.14682">
        <ele>330.39</ele>
        <time>2017-09-15T12:44:46Z</time>
      </trkpt>
      <trkpt lat="44.40791" lon="4.14707">
        <ele>333.96</ele>
        <time>2017-09-15T12:45:32Z</time>
      </trkpt>
      <trkpt lat="44.40801" lon="4.14729">
        <ele>335.01</ele>
        <time>2017-09-15T12:45:49Z</time>
      </trkpt>
      <trkpt lat="44.40804" lon="4.14754">
        <ele>319.87</ele>
        <time>2017-09-15T12:46:34Z</time>
      </trkpt>
      <trkpt lat="44.40808" lon="4.14779">
        <ele>322.99</ele>
        <time>2017-09-15T12:48:17Z</time>
      </trkpt>
      <trkpt lat="44.40817" lon="4.14802">
        <ele>324.6</ele>
        <time>2017-09-15T12:48:47Z</time>
      </trkpt>
      <trkpt lat="44.40818" lon="4.14828">
        <ele>319.69</ele>
        <time>2017-09-15T12:49:14Z</time>
      </trkpt>
      <trkpt lat="44.40825" lon="4.14852">
        <ele>316.81</ele>
        <time>2017-09-15T12:49:33Z</time>
      </trkpt>
      <trkpt lat="44.40832" lon="4.14874">
        <ele>312.08</ele>
        <time>2017-09-15T12:50:01Z</time>
      </trkpt>
      <trkpt lat="44.40842" lon="4.14897">
        <ele>314.38</ele>
        <time>2017-09-15T12:50:34Z</time>
      </trkpt>
      <trkpt lat="44.40853" lon="4.14918">
        <ele>311.39</ele>
        <time>2017-09-15T12:51:09Z</time>
      </trkpt>
      <trkpt lat="44.4086" lon="4.14942">
        <ele>314.69</ele>
        <time>2017-09-15T12:51:32Z</time>
      </trkpt>
      <trkpt lat="44.40858" lon="4.14968">
        <ele>314.68</ele>
        <time>2017-09-15T12:51:59Z</time>
      </trkpt>
      <trkpt lat="44.40861" lon="4.14994">
        <ele>310.69</ele>
        <time>2017-09-15T12:52:41Z</time>
      </trkpt>
      <trkpt lat="44.40866" lon="4.15019">
        <ele>311.78</ele>
        <time>2017-09-15T12:53:03Z</time>
      </trkpt>
      <trkpt lat="44.4087" lon="4.15044">
        <ele>309.02</ele>
        <time>2017-09-15T12:53:28Z</time>
      </trkpt>
      <trkpt lat="44.40875" lon="4.15068">
        <ele>303.86</ele>
        <time>2017-09-15T12:53:50Z</time>
      </trkpt>
      <trkpt lat="44.40885" lon="4.1509">
        <ele>301.5</ele>
        <time>2017-09-15T12:54:19Z</time>
      </trkpt>
      <trkpt lat="44.40892" lon="4.15113">
        <ele>297.7</ele>
        <time>2017-09-15T12:54:57Z</time>
      </trkpt>
      <trkpt lat="44.40901" lon="4.15135">
        <ele>297.82</ele>
        <time>2017-09-15T12:55:18Z</time>
      </trkpt>
      <trkpt lat="44.40907" lon="4.15159">
        <ele>298.54</ele>
        <time>2017-09-15T12:55:47Z</time>
      </trkpt>
      <trkpt lat="44.40909" lon="4.15185">
        <ele>296.78</ele>
        <time>2017-09-15T12:56:07Z</time>
      </trkpt>
      <trkpt lat="44.40913" lon="4.15211">
        <ele>297.09</ele>
        <time>2017-09-15T12:56:31Z</time>
      </trkpt>
      <trkpt lat="44.40917" lon="4.15235">
        <ele>297.63</ele>
        <time>2017-09-15T12:57:09Z</time>
      </trkpt>
      <trkpt lat="44.40928" lon="4.15255">
        <ele>299.72</ele>
        <time>2017-09-15T12:57:36Z</time>
      </trkpt>
      <trkpt lat="44.40936" lon="4.15279">
        <ele>304.36</ele>
        <time>2017-09-15T12:57:58Z</time>
      </trkpt>
      <trkpt lat="44.40941" lon="4.15304">
        <ele>302.7</ele>
        <time>2017-09-15T12:58:43Z</time>
      </trkpt>
      <trkpt lat="44.40946" lon="4.15328">
        <ele>300.97</ele>
        <time>2017-09-15T12:59:05Z</time>
      </trkpt>
      <trkpt lat="44.40962" lon="4.15341">
        <ele>296.99</ele>
        <time>2017-09-15T12:59:30Z</time>
      </trkpt>
      <trkpt lat="44.40976" lon="4.15357">
        <ele>305.3</ele>
        <time>2017-09-15T13:00:07Z</time>
      </trkpt>
      <trkpt lat="44.40988" lon="4.15376">
        <ele>302.9</ele>
        <time>2017-09-15T13:00:25Z</time>
      </trkpt>
      <trkpt lat="44.40991" lon="4.15401">
        <ele>303.61</ele>
        <time>2017-09-15T13:00:45Z</time>
      </trkpt>
      <trkpt lat="44.40998" lon="4.15425">
        <ele>309.55</ele>
        <time>2017-09-15T13:01:04Z</time>
      </trkpt>
      <trkpt lat="44.41" lon="4.15451">
        <ele>310.45</ele>
        <time>2017-09-15T13:01:24Z</time>
      </trkpt>
      <trkpt lat="44.41002" lon="4.15477">
        <ele>308.69</ele>
        <time>2017-09-15T13:01:46Z</time>
      </trkpt>
      <trkpt lat="44.4101" lon="4.155">
        <ele>310.66</ele>
        <time>2017-09-15T13:02:05Z</time>
      </trkpt>
      <trkpt lat="44.41011" lon="4.15527">
        <ele>310.69</ele>
        <time>2017-09-15T13:02:28Z</time>
      </trkpt>
      <trkpt lat="44.41012" lon="4.15553">
        <ele>308.08</ele>
        <time>2017-09-15T13:02:53Z</time>
      </trkpt>
      <trkpt lat="44.41006" lon="4.15577">
        <ele>309.7</ele>
        <time>2017-09-15T13:05:38Z</time>
      </trkpt>
      <trkpt lat="44.4101" lon="4.15602">
        <ele>310.5</ele>
        <time>2017-09-15T13:08:02Z</time>
      </trkpt>
      <trkpt lat="44.41003" lon="4.15626">
        <ele>312.38</ele>
        <time>2017-09-15T13:08:20Z</time>
      </trkpt>
      <trkpt lat="44.4101" lon="4.1565">
        <ele>317.29</ele>
        <time>2017-09-15T13:13:28Z</time>
      </trkpt>
      <trkpt lat="44.41001" lon="4.15673">
        <ele>318.39</ele>
        <time>2017-09-15T13:13:44Z</time>
      </trkpt>
      <trkpt lat="44.40993" lon="4.15696">
        <ele>318.69</ele>
        <time>2017-09-15T13:14:01Z</time>
      </trkpt>
      <trkpt lat="44.4099" lon="4.15722">
        <ele>317.69</ele>
        <time>2017-09-15T13:14:20Z</time>
      </trkpt>
      <trkpt lat="44.40986" lon="4.15746">
        <ele>319.69</ele>
        <time>2017-09-15T13:14:48Z</time>
      </trkpt>
      <trkpt lat="44.40983" lon="4.15772">
        <ele>316.6</ele>
        <time>2017-09-15T13:15:05Z</time>
      </trkpt>
      <trkpt lat="44.4098" lon="4.15797">
        <ele>313.01</ele>
        <time>2017-09-15T13:15:36Z</time>
      </trkpt>
      <trkpt lat="44.40975" lon="4.15823">
        <ele>314.27</ele>
        <time>2017-09-15T13:15:54Z</time>
      </trkpt>
      <trkpt lat="44.40975" lon="4.15849">
        <ele>314.66</ele>
        <time>2017-09-15T13:16:13Z</time>
      </trkpt>
      <trkpt lat="44.40979" lon="4.15875">
        <ele>314.69</ele>
        <time>2017-09-15T13:16:33Z</time>
      </trkpt>
      <trkpt lat="44.40981" lon="4.159">
        <ele>313.96</ele>
        <time>2017-09-15T13:16:52Z</time>
      </trkpt>
      <trkpt lat="44.40973" lon="4.15924">
        <ele>309.6</ele>
        <time>2017-09-15T13:17:09Z</time>
      </trkpt>
      <trkpt lat="44.40964" lon="4.15947">
        <ele>310.69</ele>
        <time>2017-09-15T13:17:32Z</time>
      </trkpt>
      <trkpt lat="44.40963" lon="4.15972">
        <ele>314.68</ele>
        <time>2017-09-15T13:18:01Z</time>
      </trkpt>
      <trkpt lat="44.40959" lon="4.15997">
        <ele>314.83</ele>
        <time>2017-09-15T13:18:25Z</time>
      </trkpt>
      <trkpt lat="44.40956" lon="4.16022">
        <ele>306.63</ele>
        <time>2017-09-15T13:18:42Z</time>
      </trkpt>
      <trkpt lat="44.4095" lon="4.16046">
        <ele>304.3</ele>
        <time>2017-09-15T13:19:03Z</time>
      </trkpt>
      <trkpt lat="44.40948" lon="4.16072">
        <ele>308.45</ele>
        <time>2017-09-15T13:19:40Z</time>
      </trkpt>
      <trkpt lat="44.40945" lon="4.16097">
        <ele>305.72</ele>
        <time>2017-09-15T13:19:58Z</time>
      </trkpt>
      <trkpt lat="44.40945" lon="4.16122">
        <ele>304.7</ele>
        <time>2017-09-15T13:20:27Z</time>
      </trkpt>
      <trkpt lat="44.40941" lon="4.16147">
        <ele>306.6</ele>
        <time>2017-09-15T13:20:54Z</time>
      </trkpt>
      <trkpt lat="44.40938" lon="4.16173">
        <ele>301.74</ele>
        <time>2017-09-15T13:21:19Z</time>
      </trkpt>
      <trkpt lat="44.40933" lon="4.16197">
        <ele>303.29</ele>
        <time>2017-09-15T13:21:42Z</time>
      </trkpt>
      <trkpt lat="44.40921" lon="4.16216">
        <ele>298.69</ele>
        <time>2017-09-15T13:22:17Z</time>
      </trkpt>
      <trkpt lat="44.40918" lon="4.16241">
        <ele>300.69</ele>
        <time>2017-09-15T13:23:15Z</time>
      </trkpt>
      <trkpt lat="44.409" lon="4.16251">
        <ele>294.67</ele>
        <time>2017-09-15T13:33:16Z</time>
      </trkpt>
      <trkpt lat="44.40882" lon="4.16252">
        <ele>290.6</ele>
        <time>2017-09-15T13:33:41Z</time>
      </trkpt>
      <trkpt lat="44.40864" lon="4.16254">
        <ele>290.87</ele>
        <time>2017-09-15T13:34:03Z</time>
      </trkpt>
      <trkpt lat="44.40845" lon="4.1626">
        <ele>292.76</ele>
        <time>2017-09-15T13:34:30Z</time>
      </trkpt>
      <trkpt lat="44.40829" lon="4.1627">
        <ele>289.58</ele>
        <time>2017-09-15T13:34:49Z</time>
      </trkpt>
      <trkpt lat="44.40811" lon="4.16276">
        <ele>288.62</ele>
        <time>2017-09-15T13:35:16Z</time>
      </trkpt>
      <trkpt lat="44.40793" lon="4.16282">
        <ele>285.69</ele>
        <time>2017-09-15T13:35:40Z</time>
      </trkpt>
      <trkpt lat="44.40777" lon="4.16293">
        <ele>285.6</ele>
        <time>2017-09-15T13:36:15Z</time>
      </trkpt>
      <trkpt lat="44.40759" lon="4.16294">
        <ele>283.02</ele>
        <time>2017-09-15T13:37:02Z</time>
      </trkpt>
      <trkpt lat="44.4074" lon="4.16296">
        <ele>273.62</ele>
        <time>2017-09-15T13:39:27Z</time>
      </trkpt>
      <trkpt lat="44.40721" lon="4.16297">
        <ele>270.05</ele>
        <time>2017-09-15T13:39:47Z</time>
      </trkpt>
      <trkpt lat="44.40705" lon="4.16286">
        <ele>267.96</ele>
        <time>2017-09-15T13:40:16Z</time>
      </trkpt>
      <trkpt lat="44.40689" lon="4.16271">
        <ele>266.75</ele>
        <time>2017-09-15T13:40:35Z</time>
      </trkpt>
      <trkpt lat="44.40677" lon="4.16253">
        <ele>271.78</ele>
        <time>2017-09-15T13:40:51Z</time>
      </trkpt>
      <trkpt lat="44.40665" lon="4.16233">
        <ele>274.3</ele>
        <time>2017-09-15T13:41:08Z</time>
      </trkpt>
      <trkpt lat="44.40655" lon="4.16211">
        <ele>273.38</ele>
        <time>2017-09-15T13:41:29Z</time>
      </trkpt>
      <trkpt lat="44.40645" lon="4.1619">
        <ele>276.66</ele>
        <time>2017-09-15T13:41:44Z</time>
      </trkpt>
      <trkpt lat="44.40638" lon="4.16166">
        <ele>278.51</ele>
        <time>2017-09-15T13:41:57Z</time>
      </trkpt>
      <trkpt lat="44.40629" lon="4.16142">
        <ele>278.3</ele>
        <time>2017-09-15T13:42:22Z</time>
      </trkpt>
      <trkpt lat="44.4062" lon="4.1612">
        <ele>275.84</ele>
        <time>2017-09-15T13:42:42Z</time>
      </trkpt>
      <trkpt lat="44.4062" lon="4.16095">
        <ele>278.98</ele>
        <time>2017-09-15T13:43:01Z</time>
      </trkpt>
      <trkpt lat="44.40608" lon="4.16076">
        <ele>274.72</ele>
        <time>2017-09-15T13:43:38Z</time>
      </trkpt>
      <trkpt lat="44.4059" lon="4.1607">
        <ele>272.39</ele>
        <time>2017-09-15T13:44:08Z</time>
      </trkpt>
      <trkpt lat="44.40572" lon="4.16062">
        <ele>272.79</ele>
        <time>2017-09-15T13:44:32Z</time>
      </trkpt>
      <trkpt lat="44.40555" lon="4.16051">
        <ele>268.66</ele>
        <time>2017-09-15T13:45:03Z</time>
      </trkpt>
      <trkpt lat="44.40538" lon="4.16044">
        <ele>270.09</ele>
        <time>2017-09-15T13:45:23Z</time>
      </trkpt>
      <trkpt lat="44.4052" lon="4.16037">
        <ele>273.69</ele>
        <time>2017-09-15T13:46:07Z</time>
      </trkpt>
      <trkpt lat="44.40515" lon="4.16061">
        <ele>269.79</ele>
        <time>2017-09-15T13:46:33Z</time>
      </trkpt>
      <trkpt lat="44.40513" lon="4.16086">
        <ele>264.93</ele>
        <time>2017-09-15T13:47:19Z</time>
      </trkpt>
      <trkpt lat="44.40508" lon="4.16111">
        <ele>264.42</ele>
        <time>2017-09-15T13:47:48Z</time>
      </trkpt>
      <trkpt lat="44.40502" lon="4.16135">
        <ele>260.99</ele>
        <time>2017-09-15T13:49:28Z</time>
      </trkpt>
      <trkpt lat="44.40495" lon="4.16159">
        <ele>254.62</ele>
        <time>2017-09-15T13:49:53Z</time>
      </trkpt>
      <trkpt lat="44.40483" lon="4.16179">
        <ele>253.69</ele>
        <time>2017-09-15T13:50:58Z</time>
      </trkpt>
      <trkpt lat="44.40473" lon="4.162">
        <ele>248.79</ele>
        <time>2017-09-15T13:51:24Z</time>
      </trkpt>
      <trkpt lat="44.40456" lon="4.16197">
        <ele>247.96</ele>
        <time>2017-09-15T13:51:54Z</time>
      </trkpt>
      <trkpt lat="44.40438" lon="4.16199">
        <ele>241.87</ele>
        <time>2017-09-15T13:52:25Z</time>
      </trkpt>
      <trkpt lat="44.40419" lon="4.16199">
        <ele>240.68</ele>
        <time>2017-09-15T13:52:52Z</time>
      </trkpt>
      <trkpt lat="44.40401" lon="4.16195">
        <ele>241.66</ele>
        <time>2017-09-15T13:53:14Z</time>
      </trkpt>
      <trkpt lat="44.40382" lon="4.16193">
        <ele>240.48</ele>
        <time>2017-09-15T13:53:38Z</time>
      </trkpt>
      <trkpt lat="44.40365" lon="4.16192">
        <ele>243.02</ele>
        <time>2017-09-15T13:54:37Z</time>
      </trkpt>
      <trkpt lat="44.40347" lon="4.16198">
        <ele>243.47</ele>
        <time>2017-09-15T13:55:13Z</time>
      </trkpt>
      <trkpt lat="44.40331" lon="4.1621">
        <ele>243.69</ele>
        <time>2017-09-15T13:55:52Z</time>
      </trkpt>
      <trkpt lat="44.40327" lon="4.16234">
        <ele>240.47</ele>
        <time>2017-09-15T13:56:27Z</time>
      </trkpt>
      <trkpt lat="44.40327" lon="4.1626">
        <ele>241.73</ele>
        <time>2017-09-15T13:56:55Z</time>
      </trkpt>
      <trkpt lat="44.40335" lon="4.16283">
        <ele>236.63</ele>
        <time>2017-09-15T13:57:17Z</time>
      </trkpt>
      <trkpt lat="44.40328" lon="4.16307">
        <ele>235.97</ele>
        <time>2017-09-15T13:57:40Z</time>
      </trkpt>
      <trkpt lat="44.40319" lon="4.16329">
        <ele>236.99</ele>
        <time>2017-09-15T13:58:24Z</time>
      </trkpt>
      <trkpt lat="44.4031" lon="4.16352">
        <ele>234.69</ele>
        <time>2017-09-15T13:59:06Z</time>
      </trkpt>
      <trkpt lat="44.40312" lon="4.16379">
        <ele>232.78</ele>
        <time>2017-09-15T13:59:40Z</time>
      </trkpt>
      <trkpt lat="44.4033" lon="4.16378">
        <ele>237.3</ele>
        <time>2017-09-15T13:59:57Z</time>
      </trkpt>
      <trkpt lat="44.40349" lon="4.16382">
        <ele>237.6</ele>
        <time>2017-09-15T14:00:26Z</time>
      </trkpt>
      <trkpt lat="44.40367" lon="4.16386">
        <ele>237.01</ele>
        <time>2017-09-15T14:00:46Z</time>
      </trkpt>
    </trkseg>
  </trk>
</gpx>